createdAt,value
2023-03-26T00:00:41.216Z,7.0378
2023-03-26T00:01:43.439Z,7.0415
2023-03-26T00:02:45.659Z,6.9787
2023-03-26T00:03:47.770Z,6.9554
2023-03-26T00:04:49.935Z,6.9696
2023-03-26T00:05:52.352Z,6.9165
2023-03-26T00:06:54.729Z,6.8643
2023-03-26T00:07:56.906Z,6.8786
2023-03-26T00:08:59.056Z,6.9335
2023-03-26T00:10:01.439Z,6.9274
2023-03-26T00:12:05.660Z,6.9186
2023-03-26T00:13:07.779Z,6.9200
2023-03-26T00:14:09.979Z,7.0039
2023-03-26T00:15:12.068Z,7.0089
2023-03-26T00:16:14.264Z,6.9673
2023-03-26T00:17:16.452Z,6.9516
2023-03-26T00:18:18.612Z,6.9688
2023-03-26T00:19:20.787Z,7.1466
2023-03-26T00:21:25.023Z,7.1105
2023-03-26T00:22:27.232Z,7.1309
2023-03-26T00:23:29.385Z,7.0497
2023-03-26T00:24:31.547Z,6.9930
2023-03-26T00:25:33.730Z,6.9152
2023-03-26T00:27:37.906Z,6.9203
2023-03-26T00:28:40.134Z,6.8666
2023-03-26T00:29:42.240Z,6.7863
2023-03-26T00:30:44.421Z,6.8185
2023-03-26T00:31:46.791Z,6.7622
2023-03-26T00:32:53.327Z,6.5917
2023-03-26T00:33:52.684Z,6.5657
2023-03-26T00:34:54.805Z,6.6011
2023-03-26T00:35:57.126Z,6.7241
2023-03-26T00:36:59.475Z,6.8805
2023-03-26T00:38:01.655Z,6.9114
2023-03-26T00:39:03.813Z,6.9545
2023-03-26T00:40:05.995Z,7.0251
2023-03-26T00:41:08.181Z,7.0331
2023-03-26T00:42:10.390Z,7.0302
2023-03-26T00:43:12.547Z,6.9669
2023-03-26T00:44:14.711Z,6.9631
2023-03-26T00:45:16.885Z,7.0916
2023-03-26T00:46:19.128Z,6.8854
2023-03-26T00:47:21.304Z,6.6518
2023-03-26T00:48:31.576Z,6.4977
2023-03-26T00:49:27.221Z,6.6596
2023-03-26T00:50:29.376Z,6.5835
2023-03-26T00:51:31.574Z,6.5700
2023-03-26T00:52:33.769Z,6.4782
2023-03-26T00:54:38.098Z,6.4822
2023-03-26T00:55:40.296Z,6.7342
2023-03-26T00:56:42.425Z,6.5583
2023-03-26T00:57:44.559Z,6.5757
2023-03-26T00:58:46.697Z,6.4042
2023-03-26T00:59:48.877Z,6.3346
2023-03-26T01:00:50.984Z,6.2135
2023-03-26T01:02:55.270Z,6.4000
2023-03-26T01:04:07.601Z,6.3308
2023-03-26T01:05:01.131Z,6.3500
2023-03-26T01:06:03.325Z,6.3828
2023-03-26T01:07:05.476Z,6.3527
2023-03-26T01:08:07.661Z,6.3569
2023-03-26T01:09:09.827Z,6.3809
2023-03-26T01:11:14.207Z,6.3096
2023-03-26T01:12:16.616Z,6.1982
2023-03-26T01:13:18.753Z,6.1000
2023-03-26T01:14:20.947Z,5.9627
2023-03-26T01:15:23.103Z,5.8818
2023-03-26T01:16:25.306Z,5.8223
2023-03-26T01:17:27.469Z,5.8392
2023-03-26T01:18:29.705Z,5.8238
2023-03-26T01:19:31.838Z,5.6678
2023-03-26T01:20:33.961Z,5.5871
2023-03-26T01:21:36.103Z,5.4797
2023-03-26T01:22:38.275Z,5.3855
2023-03-26T01:23:40.352Z,5.4215
2023-03-26T01:24:42.564Z,5.4686
2023-03-26T01:25:44.703Z,5.3662
2023-03-26T01:26:46.896Z,5.2785
2023-03-26T01:27:49.003Z,5.2838
2023-03-26T01:28:51.223Z,5.2226
2023-03-26T01:29:53.336Z,5.1425
2023-03-26T01:30:55.529Z,5.1064
2023-03-26T01:31:57.664Z,5.1074
2023-03-26T01:32:59.912Z,5.0408
2023-03-26T01:34:02.090Z,5.0639
2023-03-26T01:35:04.268Z,5.0427
2023-03-26T01:36:06.449Z,4.9453
2023-03-26T01:37:08.724Z,5.0368
2023-03-26T01:38:11.067Z,4.9430
2023-03-26T01:39:13.729Z,5.0065
2023-03-26T01:40:15.884Z,5.0721
2023-03-26T01:41:18.114Z,5.1717
2023-03-26T01:42:20.311Z,5.4906
2023-03-26T01:43:22.517Z,5.4387
2023-03-26T01:44:24.691Z,5.4980
2023-03-26T01:45:26.914Z,5.4250
2023-03-26T01:46:29.200Z,5.4204
2023-03-26T01:47:31.362Z,5.4950
2023-03-26T01:48:33.495Z,5.4637
2023-03-26T01:49:35.734Z,5.3244
2023-03-26T01:50:37.927Z,5.4210
2023-03-26T01:51:40.273Z,5.6546
2023-03-26T01:52:42.484Z,5.5739
2023-03-26T01:53:44.665Z,5.5892
2023-03-26T01:54:46.894Z,5.4927
2023-03-26T01:55:49.046Z,5.4980
2023-03-26T01:56:51.297Z,5.5148
2023-03-26T01:57:53.460Z,5.3952
2023-03-26T01:58:55.659Z,5.3977
2023-03-26T01:59:57.882Z,5.3071
2023-03-26T02:01:00.038Z,5.2600
2023-03-26T02:02:02.331Z,5.0769
2023-03-26T02:03:04.564Z,5.0069
2023-03-26T02:04:06.864Z,4.9121
2023-03-26T02:06:11.078Z,5.2371
2023-03-26T02:07:13.267Z,5.1705
2023-03-26T02:11:23.220Z,5.7179
2023-03-26T02:13:27.744Z,5.9585
2023-03-26T02:14:29.949Z,6.1141
2023-03-26T02:15:32.131Z,6.0939
2023-03-26T02:16:34.374Z,5.9817
2023-03-26T02:17:36.623Z,5.9171
2023-03-26T02:18:38.888Z,5.9344
2023-03-26T02:20:43.071Z,5.7555
2023-03-26T02:21:45.252Z,5.7717
2023-03-26T02:22:47.480Z,5.9802
2023-03-26T02:23:49.694Z,5.8335
2023-03-26T02:24:51.878Z,5.6798
2023-03-26T02:25:54.154Z,5.5610
2023-03-26T02:26:56.711Z,5.4873
2023-03-26T02:27:58.919Z,5.4818
2023-03-26T02:29:01.174Z,5.6300
2023-03-26T02:30:03.394Z,5.6012
2023-03-26T02:31:05.632Z,5.7221
2023-03-26T02:32:07.823Z,5.8577
2023-03-26T02:33:10.072Z,5.8087
2023-03-26T02:34:12.256Z,5.6956
2023-03-26T02:35:14.551Z,5.6382
2023-03-26T02:36:16.883Z,5.6455
2023-03-26T02:37:19.139Z,5.5774
2023-03-26T02:38:21.364Z,5.5575
2023-03-26T02:39:23.812Z,5.4879
2023-03-26T02:40:25.989Z,5.4101
2023-03-26T02:41:28.219Z,5.4498
2023-03-26T02:42:30.405Z,5.4967
2023-03-26T02:43:32.603Z,5.6445
2023-03-26T02:45:36.954Z,5.6916
2023-03-26T02:46:39.182Z,5.7895
2023-03-26T02:47:41.425Z,5.9045
2023-03-26T02:48:43.623Z,5.8864
2023-03-26T02:49:45.896Z,5.9775
2023-03-26T02:50:48.052Z,6.0784
2023-03-26T02:51:50.275Z,6.0616
2023-03-26T02:52:52.433Z,6.1618
2023-03-26T02:53:54.667Z,6.1311
2023-03-26T02:54:56.864Z,6.0506
2023-03-26T02:57:01.176Z,6.0462
2023-03-26T02:58:03.390Z,6.0266
2023-03-26T02:59:05.630Z,6.1110
2023-03-26T03:00:07.867Z,6.0313
2023-03-26T03:01:10.090Z,6.1191
2023-03-26T03:02:12.308Z,6.0697
2023-03-26T03:03:14.460Z,6.0271
2023-03-26T03:04:16.731Z,5.9926
2023-03-26T03:05:18.965Z,5.9989
2023-03-26T03:06:21.133Z,6.0435
2023-03-26T03:07:23.396Z,6.0628
2023-03-26T03:08:25.623Z,5.9733
2023-03-26T03:09:27.791Z,5.9241
2023-03-26T03:10:29.940Z,5.8969
2023-03-26T03:11:32.187Z,5.8940
2023-03-26T03:12:34.389Z,5.9180
2023-03-26T03:13:36.568Z,5.8345
2023-03-26T03:14:38.745Z,5.7628
2023-03-26T03:15:40.930Z,5.7229
2023-03-26T03:16:43.158Z,5.6817
2023-03-26T03:17:45.423Z,5.6443
2023-03-26T03:18:47.595Z,5.5989
2023-03-26T03:19:49.750Z,5.6041
2023-03-26T03:20:51.986Z,5.5842
2023-03-26T03:21:54.163Z,5.6193
2023-03-26T03:22:56.466Z,5.6065
2023-03-26T03:24:00.071Z,5.5467
2023-03-26T03:25:02.712Z,5.4469
2023-03-26T03:26:04.941Z,5.4601
2023-03-26T03:27:07.127Z,5.4059
2023-03-26T03:28:09.274Z,5.4128
2023-03-26T03:29:11.503Z,5.4097
2023-03-26T03:30:13.735Z,5.4088
2023-03-26T03:31:15.936Z,5.3836
2023-03-26T03:32:18.132Z,5.3975
2023-03-26T03:33:20.331Z,5.4168
2023-03-26T03:34:22.517Z,5.3460
2023-03-26T03:35:24.805Z,5.4253
2023-03-26T03:36:27.051Z,5.4429
2023-03-26T03:37:29.221Z,5.3874
2023-03-26T03:38:31.422Z,5.3695
2023-03-26T03:39:33.675Z,5.3988
2023-03-26T03:40:35.856Z,5.5272
2023-03-26T03:41:38.069Z,5.4145
2023-03-26T03:42:40.310Z,5.2880
2023-03-26T03:44:44.702Z,5.1980
2023-03-26T03:45:46.956Z,5.1072
2023-03-26T03:46:49.200Z,5.0664
2023-03-26T03:47:51.406Z,5.0507
2023-03-26T03:48:53.580Z,5.0393
2023-03-26T03:49:55.855Z,5.0761
2023-03-26T03:50:58.112Z,5.1076
2023-03-26T03:52:00.370Z,5.0639
2023-03-26T03:53:02.577Z,5.0689
2023-03-26T03:54:04.797Z,5.1040
2023-03-26T03:55:06.994Z,5.1446
2023-03-26T03:56:09.155Z,5.1928
2023-03-26T03:57:11.502Z,5.1843
2023-03-26T03:58:13.666Z,5.1926
2023-03-26T03:59:15.863Z,5.2140
2023-03-26T04:00:18.179Z,5.3418
2023-03-26T04:01:20.350Z,5.3853
2023-03-26T04:02:22.618Z,5.3454
2023-03-26T04:03:33.489Z,5.3788
2023-03-26T04:04:28.516Z,5.3992
2023-03-26T04:05:30.702Z,5.3429
2023-03-26T04:06:32.893Z,5.3422
2023-03-26T04:07:35.063Z,5.2955
2023-03-26T04:08:37.275Z,5.3300
2023-03-26T04:09:39.503Z,5.3895
2023-03-26T04:13:47.857Z,5.3790
2023-03-26T04:14:50.076Z,5.4889
2023-03-26T04:15:52.425Z,5.3513
2023-03-26T04:17:56.878Z,5.3132
2023-03-26T04:18:59.114Z,5.3769
2023-03-26T04:20:01.293Z,5.3571
2023-03-26T04:21:03.500Z,5.4051
2023-03-26T04:22:05.699Z,5.2913
2023-03-26T04:23:07.916Z,5.3120
2023-03-26T04:24:10.122Z,5.2804
2023-03-26T04:25:12.260Z,5.2138
2023-03-26T04:26:14.515Z,5.2573
2023-03-26T04:27:16.653Z,5.1898
2023-03-26T04:28:18.887Z,5.2832
2023-03-26T04:29:21.082Z,5.3090
2023-03-26T04:30:23.285Z,5.2819
2023-03-26T04:31:25.446Z,5.2567
2023-03-26T04:32:27.689Z,5.3923
2023-03-26T04:33:29.837Z,5.5049
2023-03-26T04:35:34.147Z,5.4835
2023-03-26T04:36:36.281Z,5.4601
2023-03-26T04:37:38.485Z,5.4643
2023-03-26T04:38:40.700Z,5.4040
2023-03-26T04:39:42.863Z,5.4059
2023-03-26T04:40:45.101Z,5.4244
2023-03-26T04:41:47.358Z,5.5287
2023-03-26T04:42:49.606Z,5.5922
2023-03-26T04:44:53.842Z,5.3811
2023-03-26T04:45:56.125Z,5.3826
2023-03-26T04:46:58.635Z,5.4789
2023-03-26T04:48:00.881Z,5.5152
2023-03-26T04:49:03.184Z,5.5850
2023-03-26T04:50:05.404Z,5.5758
2023-03-26T04:51:07.658Z,5.4887
2023-03-26T04:52:09.865Z,5.5049
2023-03-26T04:53:12.033Z,5.5083
2023-03-26T04:54:14.264Z,5.4599
2023-03-26T04:56:18.509Z,5.3281
2023-03-26T04:57:20.686Z,5.4068
2023-03-26T04:58:22.873Z,5.4429
2023-03-26T04:59:25.081Z,5.4526
2023-03-26T05:00:27.269Z,5.3885
2023-03-26T05:01:29.533Z,5.3660
2023-03-26T05:02:31.830Z,5.4778
2023-03-26T05:03:34.050Z,5.4900
2023-03-26T05:04:36.274Z,5.3956
2023-03-26T05:05:38.492Z,5.4458
2023-03-26T05:06:40.675Z,5.4847
2023-03-26T05:07:42.906Z,5.4232
2023-03-26T05:08:45.079Z,5.5329
2023-03-26T05:09:47.308Z,5.4561
2023-03-26T05:10:49.460Z,5.3904
2023-03-26T05:12:53.686Z,5.3443
2023-03-26T05:13:55.892Z,5.3620
2023-03-26T05:14:58.099Z,5.3315
2023-03-26T05:16:00.282Z,5.2771
2023-03-26T05:17:02.508Z,5.2731
2023-03-26T05:18:04.722Z,5.3382
2023-03-26T05:21:11.074Z,5.3996
2023-03-26T05:22:13.273Z,5.4145
2023-03-26T05:23:15.518Z,5.4164
2023-03-26T05:24:17.631Z,5.4450
2023-03-26T05:25:19.900Z,5.4971
2023-03-26T05:26:22.148Z,5.5247
2023-03-26T05:27:24.327Z,5.5358
2023-03-26T05:28:26.546Z,5.4648
2023-03-26T05:29:28.799Z,5.4517
2023-03-26T05:30:30.994Z,5.4337
2023-03-26T05:31:33.182Z,5.3742
2023-03-26T05:32:35.392Z,5.4025
2023-03-26T05:33:37.751Z,5.4156
2023-03-26T05:34:40.016Z,5.3618
2023-03-26T05:35:42.281Z,5.3223
2023-03-26T05:36:44.442Z,5.4646
2023-03-26T05:37:46.653Z,5.5531
2023-03-26T05:38:48.819Z,5.5596
2023-03-26T05:39:51.056Z,5.5350
2023-03-26T05:40:53.595Z,5.4637
2023-03-26T05:41:55.994Z,5.3744
2023-03-26T05:44:00.224Z,5.3712
2023-03-26T05:45:02.445Z,5.3344
2023-03-26T05:46:04.647Z,5.2979
2023-03-26T05:47:06.872Z,5.2731
2023-03-26T05:48:09.051Z,5.2335
2023-03-26T05:49:11.266Z,5.1846
2023-03-26T05:50:13.431Z,5.1844
2023-03-26T05:51:15.701Z,5.1698
2023-03-26T05:52:17.939Z,5.1520
2023-03-26T05:54:22.261Z,5.1547
2023-03-26T05:55:24.508Z,5.1215
2023-03-26T05:57:28.892Z,5.1251
2023-03-26T05:58:31.139Z,5.1297
2023-03-26T05:59:33.349Z,5.1261
2023-03-26T06:00:35.509Z,5.1164
2023-03-26T06:01:37.711Z,5.0898
2023-03-26T06:02:39.911Z,5.0671
2023-03-26T06:03:42.168Z,5.0622
2023-03-26T06:04:44.393Z,5.0530
2023-03-26T06:05:46.623Z,5.0452
2023-03-26T06:06:48.787Z,5.0517
2023-03-26T06:07:51.033Z,5.0322
2023-03-26T06:09:01.395Z,5.0429
2023-03-26T06:09:56.867Z,5.0956
2023-03-26T06:10:59.043Z,5.1225
2023-03-26T06:12:01.220Z,5.1358
2023-03-26T06:13:03.490Z,5.1501
2023-03-26T06:14:05.709Z,5.1276
2023-03-26T06:15:07.860Z,5.1396
2023-03-26T06:16:10.134Z,5.1890
2023-03-26T06:17:13.746Z,5.1897
2023-03-26T06:18:15.984Z,5.2060
2023-03-26T06:19:18.122Z,5.1429
2023-03-26T06:20:20.341Z,5.1658
2023-03-26T06:21:22.611Z,5.1478
2023-03-26T06:22:24.839Z,5.2150
2023-03-26T06:23:27.019Z,5.2178
2023-03-26T06:24:29.161Z,5.2132
2023-03-26T06:25:31.355Z,5.2121
2023-03-26T06:26:33.563Z,5.1877
2023-03-26T06:27:35.763Z,5.1225
2023-03-26T06:28:37.935Z,5.1402
2023-03-26T06:29:40.150Z,5.1558
2023-03-26T06:30:42.339Z,5.1211
2023-03-26T06:31:44.563Z,5.1226
2023-03-26T06:32:46.792Z,5.1429
2023-03-26T06:33:48.999Z,5.1627
2023-03-26T06:34:51.234Z,5.1936
2023-03-26T06:35:53.432Z,5.2132
2023-03-26T06:36:55.625Z,5.2230
2023-03-26T06:37:57.803Z,5.2470
2023-03-26T06:40:02.012Z,5.2087
2023-03-26T06:41:04.238Z,5.2159
2023-03-26T06:42:06.452Z,5.2249
2023-03-26T06:43:10.941Z,5.1991
2023-03-26T06:44:09.093Z,5.1940
2023-03-26T06:45:11.312Z,5.2008
2023-03-26T06:46:13.552Z,5.1993
2023-03-26T06:47:15.787Z,5.1759
2023-03-26T06:48:18.019Z,5.1938
2023-03-26T06:49:20.180Z,5.2043
2023-03-26T06:50:22.452Z,5.2289
2023-03-26T06:51:24.642Z,5.1989
2023-03-26T06:52:26.873Z,5.2035
2023-03-26T06:53:29.024Z,5.2020
2023-03-26T06:54:31.288Z,5.2211
2023-03-26T06:55:33.557Z,5.2070
2023-03-26T06:56:35.729Z,5.2186
2023-03-26T06:57:37.964Z,5.2552
2023-03-26T06:58:40.233Z,5.2510
2023-03-26T06:59:42.412Z,5.2743
2023-03-26T07:00:44.731Z,5.3010
2023-03-26T07:01:46.924Z,5.2947
2023-03-26T07:02:49.128Z,5.3460
2023-03-26T07:03:51.333Z,5.3370
2023-03-26T07:04:53.522Z,5.3252
2023-03-26T07:05:55.745Z,5.3496
2023-03-26T07:06:57.970Z,5.3973
2023-03-26T07:08:00.160Z,5.5209
2023-03-26T07:10:04.417Z,5.6826
2023-03-26T07:11:06.681Z,5.6413
2023-03-26T07:12:08.863Z,5.7767
2023-03-26T07:13:11.157Z,5.9190
2023-03-26T07:14:13.383Z,5.9834
2023-03-26T07:15:15.577Z,6.1460
2023-03-26T07:16:17.789Z,6.2945
2023-03-26T07:17:19.962Z,6.2684
2023-03-26T07:18:22.199Z,6.2938
2023-03-26T07:19:24.337Z,6.4467
2023-03-26T07:21:28.608Z,6.3758
2023-03-26T07:22:30.809Z,6.3210
2023-03-26T07:23:33.169Z,6.3090
2023-03-26T07:24:35.373Z,6.4136
2023-03-26T07:25:37.606Z,6.3569
2023-03-26T07:26:39.792Z,6.4223
2023-03-26T07:27:42.021Z,6.4630
2023-03-26T07:28:44.230Z,6.4624
2023-03-26T07:29:47.949Z,6.4307
2023-03-26T07:30:50.088Z,6.3346
2023-03-26T07:31:52.530Z,6.3087
2023-03-26T07:32:54.775Z,6.2488
2023-03-26T07:33:56.957Z,6.1837
2023-03-26T07:34:59.190Z,6.1097
2023-03-26T07:36:01.370Z,6.0571
2023-03-26T07:37:03.637Z,6.0029
2023-03-26T07:38:05.853Z,5.9720
2023-03-26T07:39:08.012Z,5.9285
2023-03-26T07:40:10.261Z,5.9047
2023-03-26T07:42:14.513Z,5.9926
2023-03-26T07:43:16.668Z,5.9785
2023-03-26T07:44:18.877Z,5.9897
2023-03-26T07:45:21.082Z,5.9535
2023-03-26T07:46:23.307Z,6.0428
2023-03-26T07:48:27.654Z,6.1887
2023-03-26T07:49:29.868Z,6.1679
2023-03-26T07:50:32.077Z,6.1423
2023-03-26T07:51:34.272Z,6.1584
2023-03-26T07:52:36.499Z,6.2289
2023-03-26T07:53:38.721Z,6.2818
2023-03-26T07:54:41.026Z,6.3508
2023-03-26T07:55:43.223Z,6.3899
2023-03-26T07:56:45.558Z,6.4326
2023-03-26T07:57:47.771Z,6.4523
2023-03-26T07:58:49.912Z,6.4817
2023-03-26T08:02:58.330Z,6.3016
2023-03-26T08:05:02.756Z,6.1330
2023-03-26T08:06:05.176Z,6.0698
2023-03-26T08:07:07.343Z,6.0023
2023-03-26T08:08:09.558Z,5.9485
2023-03-26T08:09:11.742Z,5.9037
2023-03-26T08:10:13.932Z,5.8591
2023-03-26T08:12:18.130Z,5.9110
2023-03-26T08:13:20.370Z,6.0060
2023-03-26T08:14:22.572Z,6.0109
2023-03-26T08:15:24.750Z,5.9966
2023-03-26T08:17:30.647Z,5.9281
2023-03-26T08:18:29.226Z,5.9289
2023-03-26T08:19:31.453Z,5.9314
2023-03-26T08:20:33.607Z,5.9037
2023-03-26T08:21:35.837Z,5.8814
2023-03-26T08:22:37.959Z,5.8528
2023-03-26T08:23:50.371Z,5.8295
2023-03-26T08:24:43.833Z,5.8390
2023-03-26T08:25:46.061Z,5.8236
2023-03-26T08:26:48.220Z,5.7839
2023-03-26T08:27:50.448Z,5.7517
2023-03-26T08:28:52.581Z,5.7008
2023-03-26T08:29:54.761Z,5.7120
2023-03-26T08:30:57.317Z,5.6901
2023-03-26T08:32:00.024Z,5.7069
2023-03-26T08:34:04.215Z,5.6798
2023-03-26T08:35:06.421Z,5.6760
2023-03-26T08:37:10.696Z,5.7097
2023-03-26T08:38:12.889Z,5.6666
2023-03-26T08:39:15.009Z,5.7160
2023-03-26T08:41:19.229Z,5.9001
2023-03-26T08:43:23.505Z,6.0719
2023-03-26T08:44:25.703Z,6.2263
2023-03-26T08:45:27.976Z,6.4797
2023-03-26T08:46:30.159Z,6.5093
2023-03-26T08:47:32.329Z,6.5976
2023-03-26T08:48:34.625Z,6.6859
2023-03-26T08:49:36.823Z,6.7784
2023-03-26T08:50:38.977Z,6.7950
2023-03-26T08:51:41.103Z,6.8849
2023-03-26T08:52:43.332Z,6.9678
2023-03-26T08:53:45.467Z,7.0022
2023-03-26T08:54:47.695Z,6.9446
2023-03-26T08:55:49.832Z,6.8835
2023-03-26T08:57:54.074Z,6.7172
2023-03-26T08:58:56.286Z,6.7033
2023-03-26T08:59:59.278Z,6.6157
2023-03-26T09:00:58.489Z,6.5548
2023-03-26T09:02:00.735Z,6.5198
2023-03-26T09:03:02.900Z,6.4948
2023-03-26T09:04:05.108Z,6.4321
2023-03-26T09:05:07.405Z,6.3357
2023-03-26T09:06:09.515Z,6.2757
2023-03-26T09:07:11.738Z,6.2596
2023-03-26T09:09:19.153Z,6.2476
2023-03-26T09:10:17.419Z,6.2738
2023-03-26T09:11:19.627Z,6.2564
2023-03-26T09:12:22.842Z,6.2201
2023-03-26T09:13:23.208Z,6.2099
2023-03-26T09:14:25.373Z,6.2669
2023-03-26T09:15:27.534Z,6.3037
2023-03-26T09:16:29.762Z,6.3298
2023-03-26T09:18:33.959Z,6.4584
2023-03-26T09:19:36.142Z,6.4300
2023-03-26T09:20:38.422Z,6.4307
2023-03-26T09:22:42.683Z,6.7924
2023-03-26T09:23:44.865Z,7.1063
2023-03-26T09:25:49.065Z,7.9231
2023-03-26T09:26:51.277Z,8.3864
2023-03-26T09:27:53.441Z,8.3080
2023-03-26T09:28:55.613Z,8.4701
2023-03-26T09:29:57.772Z,8.2071
2023-03-26T09:30:59.976Z,8.1800
2023-03-26T09:32:02.133Z,8.1350
2023-03-26T09:33:04.324Z,8.0482
2023-03-26T09:34:06.504Z,8.1106
2023-03-26T09:35:08.648Z,8.0598
2023-03-26T09:36:11.225Z,7.9717
2023-03-26T09:37:13.442Z,7.8882
2023-03-26T09:38:15.632Z,7.9183
2023-03-26T09:39:17.802Z,7.9557
2023-03-26T09:40:19.990Z,7.8580
2023-03-26T09:41:22.200Z,7.8561
2023-03-26T09:42:24.394Z,7.8410
2023-03-26T09:44:28.670Z,7.7968
2023-03-26T09:45:30.948Z,7.7867
2023-03-26T09:47:35.182Z,7.7026
2023-03-26T09:48:37.413Z,7.6534
2023-03-26T09:49:39.557Z,7.6511
2023-03-26T09:50:41.778Z,7.6846
2023-03-26T09:51:44.038Z,7.8668
2023-03-26T09:52:46.196Z,8.0377
2023-03-26T09:53:48.355Z,8.2000
2023-03-26T09:54:50.585Z,8.3173
2023-03-26T09:56:54.876Z,8.2149
2023-03-26T09:57:56.994Z,8.3354
2023-03-26T09:58:59.193Z,8.5384
2023-03-26T10:00:01.367Z,8.5697
2023-03-26T10:01:03.636Z,8.6677
2023-03-26T10:02:05.894Z,8.6408
2023-03-26T10:03:08.148Z,8.5725
2023-03-26T10:04:10.373Z,8.5529
2023-03-26T10:05:12.597Z,8.5515
2023-03-26T10:06:14.856Z,8.6347
2023-03-26T10:07:17.020Z,8.6881
2023-03-26T10:08:19.287Z,8.6109
2023-03-26T10:09:21.439Z,8.7795
2023-03-26T10:10:23.654Z,8.9157
2023-03-26T10:11:25.814Z,8.9286
2023-03-26T10:12:28.206Z,8.9906
2023-03-26T10:13:30.497Z,9.1133
2023-03-26T10:14:32.658Z,9.2569
2023-03-26T10:15:34.961Z,9.3379
2023-03-26T10:16:37.301Z,9.4062
2023-03-26T10:17:39.569Z,9.2931
2023-03-26T10:18:41.713Z,9.4467
2023-03-26T10:19:44.236Z,9.5382
2023-03-26T10:20:46.527Z,9.5386
2023-03-26T10:21:48.718Z,9.5855
2023-03-26T10:22:50.977Z,9.7299
2023-03-26T10:23:53.120Z,9.8901
2023-03-26T10:24:55.363Z,9.8682
2023-03-26T10:25:57.673Z,9.9210
2023-03-26T10:27:09.113Z,9.7835
2023-03-26T10:28:03.589Z,9.6312
2023-03-26T10:29:05.824Z,9.5724
2023-03-26T10:30:08.014Z,9.4806
2023-03-26T10:31:10.179Z,9.4556
2023-03-26T10:32:12.452Z,9.4373
2023-03-26T10:33:14.891Z,9.4827
2023-03-26T10:34:28.659Z,9.6315
2023-03-26T10:35:20.833Z,9.6384
2023-03-26T10:37:25.153Z,9.4596
2023-03-26T10:38:27.385Z,9.5497
2023-03-26T10:39:37.216Z,9.6220
2023-03-26T10:40:33.265Z,9.6717
2023-03-26T10:41:35.498Z,9.5333
2023-03-26T10:42:37.641Z,9.4997
2023-03-26T10:43:39.829Z,9.4173
2023-03-26T10:44:42.048Z,9.4890
2023-03-26T10:45:44.340Z,9.4066
2023-03-26T10:46:46.715Z,9.4539
2023-03-26T10:47:49.129Z,9.5396
2023-03-26T10:49:53.310Z,9.6279
2023-03-26T10:50:55.785Z,9.6431
2023-03-26T10:51:58.872Z,9.6475
2023-03-26T10:53:01.083Z,9.8653
2023-03-26T10:54:03.500Z,9.8651
2023-03-26T10:55:05.695Z,9.9493
2023-03-26T10:56:07.948Z,9.8863
2023-03-26T10:57:10.317Z,9.8743
2023-03-26T10:58:12.494Z,10.0031
2023-03-26T10:59:15.057Z,9.9895
2023-03-26T11:00:17.516Z,10.0078
2023-03-26T11:01:19.790Z,10.1173
2023-03-26T11:02:29.299Z,10.2323
2023-03-26T11:03:25.937Z,10.4512
2023-03-26T11:04:28.082Z,10.4511
2023-03-26T11:05:30.366Z,10.5270
2023-03-26T11:06:32.629Z,10.5863
2023-03-26T11:07:34.821Z,10.5392
2023-03-26T11:08:36.950Z,10.3908
2023-03-26T11:09:39.207Z,10.2909
2023-03-26T11:10:41.411Z,10.2232
2023-03-26T11:11:43.932Z,10.2247
2023-03-26T11:12:46.180Z,10.3176
2023-03-26T11:13:48.361Z,10.4108
2023-03-26T11:14:50.628Z,10.6075
2023-03-26T11:15:53.046Z,10.5705
2023-03-26T11:16:55.387Z,10.4698
2023-03-26T11:17:57.614Z,10.5747
2023-03-26T11:18:59.754Z,10.6735
2023-03-26T11:20:01.953Z,10.7504
2023-03-26T11:21:19.106Z,10.9308
2023-03-26T11:22:07.964Z,11.1946
2023-03-26T11:23:10.100Z,11.0321
2023-03-26T11:24:13.264Z,11.1172
2023-03-26T11:25:15.418Z,11.1307
2023-03-26T11:26:17.690Z,11.0769
2023-03-26T11:27:21.323Z,10.9451
2023-03-26T11:28:21.140Z,10.7556
2023-03-26T11:29:32.297Z,10.8059
2023-03-26T11:30:26.917Z,10.7891
2023-03-26T11:31:29.243Z,10.8289
2023-03-26T11:32:31.513Z,10.8740
2023-03-26T11:33:33.619Z,10.9745
2023-03-26T11:34:35.822Z,11.1664
2023-03-26T11:35:40.625Z,11.4536
2023-03-26T11:36:39.150Z,11.1685
2023-03-26T11:37:41.324Z,11.0918
2023-03-26T11:39:45.581Z,10.9241
2023-03-26T11:40:47.680Z,10.7862
2023-03-26T11:41:49.880Z,10.8743
2023-03-26T11:42:52.045Z,10.9701
2023-03-26T11:43:54.368Z,11.1070
2023-03-26T11:44:56.794Z,11.1423
2023-03-26T11:45:59.131Z,11.2551
2023-03-26T11:47:01.370Z,11.4708
2023-03-26T11:48:03.571Z,11.4231
2023-03-26T11:49:05.719Z,11.4263
2023-03-26T11:52:12.000Z,11.4096
2023-03-26T11:53:14.183Z,11.6178
2023-03-26T11:54:16.405Z,11.8626
2023-03-26T11:55:18.608Z,11.8021
2023-03-26T11:56:20.837Z,11.9045
2023-03-26T11:57:23.067Z,11.8448
2023-03-26T11:58:25.261Z,11.6094
2023-03-26T11:59:27.421Z,11.5578
2023-03-26T12:01:31.792Z,11.6461
2023-03-26T12:02:34.156Z,12.3156
2023-03-26T12:04:38.524Z,12.9967
2023-03-26T12:05:40.692Z,13.2900
2023-03-26T12:06:42.794Z,12.5752
2023-03-26T12:07:44.913Z,11.9869
2023-03-26T12:08:47.093Z,11.7533
2023-03-26T12:09:49.246Z,11.5106
2023-03-26T12:10:51.427Z,11.2846
2023-03-26T12:11:53.635Z,11.1437
2023-03-26T12:12:55.822Z,11.0658
2023-03-26T12:13:58.046Z,10.9550
2023-03-26T12:15:00.204Z,10.8209
2023-03-26T12:16:02.357Z,10.6914
2023-03-26T12:17:04.623Z,10.7340
2023-03-26T12:18:27.757Z,10.5041
2023-03-26T12:19:07.848Z,10.2687
2023-03-26T12:20:09.962Z,10.1644
2023-03-26T12:21:12.248Z,10.0320
2023-03-26T12:22:14.409Z,9.9434
2023-03-26T12:23:16.707Z,9.8814
2023-03-26T12:24:18.966Z,9.8400
2023-03-26T12:25:21.181Z,9.8100
2023-03-26T12:26:23.357Z,9.7608
2023-03-26T12:27:25.511Z,9.7282
2023-03-26T12:28:27.660Z,9.7236
2023-03-26T12:29:29.807Z,9.6799
2023-03-26T12:30:32.068Z,9.5836
2023-03-26T12:31:34.270Z,9.5476
2023-03-26T12:32:45.868Z,9.1873
2023-03-26T12:33:40.220Z,8.0257
2023-03-26T12:34:42.434Z,7.5748
2023-03-26T12:35:44.695Z,7.7226
2023-03-26T12:36:46.950Z,7.8956
2023-03-26T12:39:16.731Z,8.3549
2023-03-26T12:40:09.271Z,8.6504
2023-03-26T12:40:58.524Z,8.9758
2023-03-26T12:47:56.670Z,10.4671
2023-03-26T12:47:58.583Z,10.2099
2023-03-26T12:48:16.177Z,10.2240
2023-03-26T12:49:18.934Z,10.1291
2023-03-26T12:50:34.436Z,10.6094
2023-03-26T12:51:24.900Z,12.0836
2023-03-26T12:52:27.053Z,12.4653
2023-03-26T12:54:31.285Z,12.7073
2023-03-26T12:55:33.443Z,13.0913
2023-03-26T12:57:37.991Z,14.2363
2023-03-26T12:59:42.148Z,14.1857
2023-03-26T13:00:44.259Z,14.5502
2023-03-26T13:01:46.347Z,14.5529
2023-03-26T13:02:48.611Z,14.3307
2023-03-26T13:03:52.824Z,13.0940
2023-03-26T13:05:05.050Z,13.0030
2023-03-26T13:05:58.580Z,13.8645
2023-03-26T13:07:02.268Z,13.4813
2023-03-26T13:08:04.722Z,12.3545
2023-03-26T13:09:06.922Z,11.9924
2023-03-26T13:10:09.216Z,11.7172
2023-03-26T13:11:11.464Z,11.1742
2023-03-26T13:12:13.758Z,10.9760
2023-03-26T13:13:15.881Z,10.7214
2023-03-26T13:14:18.113Z,10.6657
2023-03-26T13:15:20.326Z,10.6710
2023-03-26T13:16:22.505Z,10.7431
2023-03-26T13:17:24.893Z,10.9262
2023-03-26T13:18:27.038Z,11.1202
2023-03-26T13:19:29.221Z,11.0880
2023-03-26T13:20:31.430Z,11.2585
2023-03-26T13:21:33.630Z,11.2427
2023-03-26T13:22:35.807Z,11.5543
2023-03-26T13:23:37.937Z,13.5107
2023-03-26T13:24:40.233Z,13.7148
2023-03-26T13:25:42.333Z,13.2643
2023-03-26T13:26:44.484Z,12.8271
2023-03-26T13:27:46.586Z,13.1962
2023-03-26T13:30:52.918Z,11.4860
2023-03-26T13:31:55.352Z,11.3392
2023-03-26T13:32:57.573Z,11.1858
2023-03-26T13:33:59.765Z,11.1904
2023-03-26T13:35:01.966Z,11.0849
2023-03-26T13:36:21.768Z,11.0208
2023-03-26T13:37:07.746Z,11.0198
2023-03-26T13:39:12.002Z,10.7399
2023-03-26T13:40:14.193Z,10.7341
2023-03-26T13:42:18.516Z,10.5421
2023-03-26T13:43:20.626Z,10.3605
2023-03-26T13:44:22.806Z,10.2604
2023-03-26T13:45:24.945Z,10.1707
2023-03-26T13:46:27.208Z,10.1505
2023-03-26T13:47:29.344Z,10.1348
2023-03-26T13:48:31.527Z,10.1745
2023-03-26T13:49:33.709Z,10.1524
2023-03-26T13:50:35.911Z,10.1713
2023-03-26T13:51:38.161Z,10.1163
2023-03-26T13:52:40.387Z,10.0740
2023-03-26T13:53:42.525Z,9.8753
2023-03-26T13:54:44.791Z,9.7038
2023-03-26T13:55:46.943Z,9.6269
2023-03-26T13:56:49.180Z,9.4232
2023-03-26T13:57:51.380Z,9.1478
2023-03-26T13:58:53.628Z,8.8645
2023-03-26T13:59:55.763Z,8.8619
2023-03-26T14:00:58.256Z,8.6339
2023-03-26T14:02:00.962Z,8.2193
2023-03-26T14:04:05.291Z,7.5814
2023-03-26T14:05:07.583Z,6.9780
2023-03-26T14:06:09.732Z,6.6516